Time;durP1;ratioP1;P1;durP2;ratioP2;P2;SDS_P1;SDS_P2;PMS_P1;PMS_P2;Temp;Humidity;BMP_temperature;BMP_pressure;BME280_temperature;BME280_humidity;BME280_pressure;Samples;Min_cycle;Max_cycle;Signal;HPM_P1;HPM_P2
2021/03/31 00:01:30;;;;;;;42.50;16.90;;;;;;;15.50;58.40;101291.13;4424446;32;20042;-74
2021/03/31 00:03:56;;;;;;;33.80;16.65;;;;;;;15.49;58.41;101293.16;4420482;32;20579;-75
2021/03/31 00:06:22;;;;;;;38.15;17.92;;;;;;;15.47;58.49;101289.19;4407288;32;20391;-75
2021/03/31 00:08:48;;;;;;;38.92;17.80;;;;;;;15.48;58.59;101285.91;4422200;32;20127;-76
2021/03/31 00:11:15;;;;;;;39.28;16.70;;;;;;;15.50;58.79;101282.62;4420454;32;20486;-75
2021/03/31 00:13:41;;;;;;;47.62;18.02;;;;;;;15.54;58.73;101286.91;4406495;32;20092;-74
2021/03/31 00:16:06;;;;;;;37.03;16.25;;;;;;;15.58;58.53;101281.09;4420208;32;20125;-76
2021/03/31 00:18:32;;;;;;;36.22;16.40;;;;;;;15.62;58.60;101281.78;4420197;32;20064;-75
2021/03/31 00:20:59;;;;;;;44.72;18.55;;;;;;;15.76;58.17;101269.91;4418405;32;20077;-75
2021/03/31 00:23:27;;;;;;;46.28;18.52;;;;;;;15.81;58.02;101275.75;4420007;32;20050;-76
2021/03/31 00:25:53;;;;;;;42.80;17.75;;;;;;;15.90;57.90;101264.47;4422999;32;20507;-75
2021/03/31 00:28:20;;;;;;;37.47;17.25;;;;;;;15.93;57.99;101254.25;4421423;32;20116;-75
2021/03/31 00:30:46;;;;;;;37.55;17.55;;;;;;;15.97;57.77;101254.91;4422085;32;20045;-75
2021/03/31 00:33:12;;;;;;;40.38;16.55;;;;;;;15.97;57.78;101254.91;4419263;32;21321;-76
2021/03/31 00:35:38;;;;;;;32.78;16.20;;;;;;;16.02;57.70;101251.47;4421962;32;20100;-75
2021/03/31 00:38:06;;;;;;;43.90;16.27;;;;;;;16.06;57.25;101251.31;4418263;32;20089;-75
2021/03/31 00:40:45;;;;;;;34.60;16.73;;;;;;;15.84;58.07;101245.69;4421541;32;20089;-75
2021/03/31 00:43:11;;;;;;;43.72;17.48;;;;;;;15.87;58.06;101231.34;4420418;32;20112;-75
2021/03/31 00:45:37;;;;;;;44.28;17.67;;;;;;;15.87;57.86;101228.50;4422360;32;20186;-75
2021/03/31 00:48:03;;;;;;;45.20;18.42;;;;;;;15.90;57.73;101264.47;4423350;32;20042;-74
2021/03/31 00:50:30;;;;;;;43.83;19.12;;;;;;;15.92;57.30;101255.50;4419714;32;20108;-74
2021/03/31 00:52:58;;;;;;;40.83;17.33;;;;;;;15.97;57.07;101243.56;4423415;32;20082;-75
2021/03/31 00:55:28;;;;;;;42.88;18.67;;;;;;;16.04;57.11;101254.63;4419308;32;20107;-74
2021/03/31 00:57:55;;;;;;;43.87;18.05;;;;;;;16.16;56.81;101245.25;4419467;32;20429;-75
2021/03/31 01:00:23;;;;;;;40.28;18.05;;;;;;;16.22;56.80;101246.22;4422138;32;20077;-75
2021/03/31 01:02:48;;;;;;;43.17;17.15;;;;;;;16.26;56.62;101235.50;4420502;32;20605;-75
2021/03/31 01:07:52;;;;;;;33.72;16.45;;;;;;;16.67;55.62;101240.78;3981022;32;15078458;-74
2021/03/31 01:10:24;;;;;;;34.33;15.73;;;;;;;16.67;55.62;101240.78;4434559;32;20118;-74
2021/03/31 01:15:59;;;;;;;30.00;15.23;;;;;;;15.95;56.88;101209.16;3995385;31;15020957;-74
2021/03/31 01:37:05;;;;;;;26.52;11.60;;;;;;;17.04;49.67;101188.44;3981456;32;15021806;-73
2021/03/31 01:39:33;;;;;;;26.55;11.32;;;;;;;17.04;49.67;101188.44;4435773;32;20386;-74
2021/03/31 01:42:00;;;;;;;23.85;11.48;;;;;;;16.56;50.44;101186.44;4435963;32;20088;-74
2021/03/31 01:44:26;;;;;;;23.95;11.23;;;;;;;16.57;50.48;101187.22;4434726;32;20072;-73
2021/03/31 01:46:56;;;;;;;24.25;11.88;;;;;;;16.63;50.46;101186.13;4432275;32;20427;-73
2021/03/31 01:49:25;;;;;;;22.92;10.85;;;;;;;16.67;50.15;101185.97;4435244;32;20556;-74
2021/03/31 01:52:01;;;;;;;31.40;10.88;;;;;;;16.79;49.61;101177.34;4433490;32;20148;-73
2021/03/31 01:54:28;;;;;;;27.70;11.48;;;;;;;16.72;49.70;101171.94;4434846;32;20037;-73
2021/03/31 01:56:55;;;;;;;26.33;11.70;;;;;;;16.74;49.37;101177.94;4426673;32;20537;-74
2021/03/31 01:59:22;;;;;;;30.20;12.20;;;;;;;16.77;49.00;101170.53;4432118;32;20072;-74
2021/03/31 02:01:52;;;;;;;29.60;11.40;;;;;;;16.86;48.59;101170.53;4426611;32;20038;-74
2021/03/31 02:04:19;;;;;;;23.15;11.05;;;;;;;16.90;48.27;101162.66;4423264;32;20072;-74
2021/03/31 02:06:46;;;;;;;23.77;11.05;;;;;;;16.91;48.12;101162.19;4420356;32;20051;-75
2021/03/31 02:09:12;;;;;;;25.08;11.73;;;;;;;16.98;48.00;101167.56;4419627;32;20437;-74
2021/03/31 02:11:42;;;;;;;23.10;11.10;;;;;;;16.94;48.12;101169.00;4418528;32;20473;-75
2021/03/31 02:14:08;;;;;;;23.30;11.18;;;;;;;16.85;48.50;101160.44;4421568;32;20682;-74
2021/03/31 02:16:36;;;;;;;28.17;11.27;;;;;;;16.85;48.44;101157.59;4419683;32;20430;-74
2021/03/31 02:19:03;;;;;;;21.73;10.82;;;;;;;16.89;48.68;101159.03;4416962;32;20460;-75
2021/03/31 02:21:30;;;;;;;21.70;11.12;;;;;;;16.85;48.89;101154.75;4422751;32;20073;-75
2021/03/31 02:23:56;;;;;;;26.75;11.70;;;;;;;16.83;49.02;101154.44;4419226;32;20138;-74
2021/03/31 02:26:25;;;;;;;32.83;11.75;;;;;;;16.78;49.02;101150.16;4420909;32;20481;-74
2021/03/31 02:28:52;;;;;;;25.33;11.88;;;;;;;16.75;48.89;101148.25;4421434;32;20478;-75
2021/03/31 02:31:20;;;;;;;24.52;11.32;;;;;;;16.73;48.92;101150.00;4418566;32;20432;-73
2021/03/31 02:33:46;;;;;;;25.77;11.50;;;;;;;16.67;49.00;101141.31;4420837;32;20475;-75
2021/03/31 02:36:14;;;;;;;26.08;11.63;;;;;;;16.70;48.87;101139.56;4418503;32;20418;-75
2021/03/31 02:38:42;;;;;;;26.90;12.15;;;;;;;16.67;48.96;101134.84;4419807;32;20065;-74
2021/03/31 02:41:09;;;;;;;29.70;11.82;;;;;;;16.53;49.63;101141.91;4415966;32;20047;-74
2021/03/31 02:43:42;;;;;;;24.80;11.65;;;;;;;16.45;49.69;101126.44;4422041;32;20450;-74
2021/03/31 02:46:13;;;;;;;27.17;12.23;;;;;;;16.49;49.90;101134.78;4420782;32;20101;-74
2021/03/31 02:48:42;;;;;;;26.05;11.32;;;;;;;16.45;50.05;101134.16;4410488;32;20416;-74
2021/03/31 02:51:09;;;;;;;28.48;11.63;;;;;;;16.40;50.31;101129.03;4408536;32;20489;-75
2021/03/31 02:53:35;;;;;;;27.67;12.02;;;;;;;16.33;50.48;101124.47;4413888;32;20511;-74
2021/03/31 02:56:04;;;;;;;26.00;11.93;;;;;;;16.31;50.70;101120.50;4412147;32;21267;-74
2021/03/31 02:58:30;;;;;;;28.58;13.13;;;;;;;16.24;50.96;101118.75;4408010;32;20400;-74
2021/03/31 03:00:58;;;;;;;29.77;11.82;;;;;;;16.14;51.34;101119.97;4409927;32;20054;-75
2021/03/31 03:03:26;;;;;;;36.33;13.00;;;;;;;16.11;51.50;101114.44;4406796;32;20399;-75
2021/03/31 03:05:55;;;;;;;27.73;12.77;;;;;;;16.05;51.53;101102.13;4410004;32;20081;-74
2021/03/31 03:08:24;;;;;;;25.50;12.68;;;;;;;16.06;51.67;101107.34;4408304;32;20045;-74
2021/03/31 03:10:50;;;;;;;29.40;12.50;;;;;;;16.18;51.21;101097.91;4412551;32;20296;-75
2021/03/31 03:13:20;;;;;;;27.17;11.63;;;;;;;16.05;51.56;101104.97;4409733;32;20374;-75
2021/03/31 03:15:46;;;;;;;23.95;11.95;;;;;;;16.01;51.73;101110.78;4410658;32;20050;-75
2021/03/31 03:18:13;;;;;;;27.10;12.35;;;;;;;15.92;51.96;101100.19;4410475;32;20040;-75
2021/03/31 03:20:39;;;;;;;26.85;11.88;;;;;;;15.84;52.30;101098.88;4411980;32;20492;-75
2021/03/31 03:23:08;;;;;;;31.15;13.07;;;;;;;15.79;52.55;101095.84;4410807;32;20073;-74
2021/03/31 03:25:35;;;;;;;27.80;13.50;;;;;;;15.84;52.64;101098.09;4412624;32;20478;-74
2021/03/31 03:28:01;;;;;;;26.45;13.68;;;;;;;15.73;53.11;101094.87;4408881;32;20033;-75
2021/03/31 03:30:27;;;;;;;30.30;13.88;;;;;;;15.75;53.07;101083.88;4409737;32;20029;-74
2021/03/31 03:32:53;;;;;;;31.33;12.88;;;;;;;15.69;53.27;101088.56;4407778;32;20155;-75
2021/03/31 03:35:24;;;;;;;24.80;12.43;;;;;;;15.67;53.26;101089.03;4405708;32;20133;-75
2021/03/31 03:37:51;;;;;;;25.77;12.35;;;;;;;15.69;53.45;101091.41;4407104;32;20095;-74
2021/03/31 03:40:20;;;;;;;28.23;13.25;;;;;;;15.64;53.58;101081.44;4405566;32;20507;-74
2021/03/31 03:42:46;;;;;;;29.42;12.57;;;;;;;15.68;53.53;101089.81;4408289;32;20077;-75
2021/03/31 03:45:12;;;;;;;32.45;12.90;;;;;;;15.74;53.34;101087.97;4408446;32;20053;-75
2021/03/31 03:47:39;;;;;;;28.35;13.55;;;;;;;15.71;53.27;101088.91;4410351;32;20077;-75
2021/03/31 03:50:08;;;;;;;25.30;13.68;;;;;;;15.62;53.67;101080.34;4408011;32;20096;-74
2021/03/31 03:52:34;;;;;;;28.02;12.75;;;;;;;15.30;54.72;101070.19;4407969;32;20462;-75
2021/03/31 03:54:59;;;;;;;27.08;13.32;;;;;;;15.16;55.00;101072.78;4407141;32;20104;-74
2021/03/31 03:57:26;;;;;;;30.92;13.98;;;;;;;15.10;55.11;101075.41;4409798;32;20407;-74
2021/03/31 03:59:54;;;;;;;34.30;14.60;;;;;;;15.07;55.19;101070.66;4406837;32;20048;-74
2021/03/31 04:02:21;;;;;;;30.35;14.27;;;;;;;15.01;55.10;101072.53;4411299;32;20423;-74
2021/03/31 04:04:47;;;;;;;34.60;15.13;;;;;;;15.06;54.93;101069.06;4411276;32;20038;-75
2021/03/31 04:07:13;;;;;;;36.85;16.70;;;;;;;14.99;55.01;101068.53;4408530;32;20039;-74
2021/03/31 04:09:46;;;;;;;43.35;15.95;;;;;;;14.94;55.20;101063.47;4407455;32;20082;-75
2021/03/31 04:12:13;;;;;;;37.78;16.05;;;;;;;14.90;55.42;101052.28;4408441;32;20442;-74
2021/03/31 04:14:40;;;;;;;40.03;15.32;;;;;;;14.88;55.19;101054.00;4408515;32;20053;-74
2021/03/31 04:17:09;;;;;;;31.27;14.07;;;;;;;14.90;55.10;101055.09;4406050;32;20524;-75
2021/03/31 04:19:38;;;;;;;28.80;13.55;;;;;;;14.89;55.12;101052.72;4408455;32;20477;-75
2021/03/31 04:22:05;;;;;;;30.10;13.48;;;;;;;14.94;54.67;101061.41;4411295;32;20030;-74
2021/03/31 04:24:32;;;;;;;39.95;14.23;;;;;;;14.96;54.20;101063.78;4406953;32;20411;-74
2021/03/31 04:27:00;;;;;;;35.33;14.85;;;;;;;15.01;54.20;101068.88;4408639;32;20091;-74
2021/03/31 04:29:27;;;;;;;38.13;15.68;;;;;;;15.07;54.26;101055.69;4405465;32;20491;-75
2021/03/31 04:31:52;;;;;;;33.55;15.57;;;;;;;15.09;54.28;101051.13;4409219;32;20062;-74
2021/03/31 04:34:20;;;;;;;31.23;15.73;;;;;;;15.10;54.24;101054.78;4409675;32;20132;-74
2021/03/31 04:36:46;;;;;;;31.00;15.27;;;;;;;15.12;54.22;101044.56;4409311;32;20513;-74
2021/03/31 04:39:12;;;;;;;35.90;15.80;;;;;;;15.20;53.99;101060.06;4410654;32;20099;-74
2021/03/31 04:41:38;;;;;;;34.80;16.20;;;;;;;15.39;53.40;101056.09;4409834;32;20054;-75
2021/03/31 04:44:04;;;;;;;33.40;15.25;;;;;;;15.29;53.82;101054.44;4409033;32;20155;-74
2021/03/31 04:46:30;;;;;;;34.92;15.10;;;;;;;15.26;53.79;101034.72;4410157;32;20049;-75
2021/03/31 04:48:55;;;;;;;30.02;14.63;;;;;;;15.38;53.77;101042.38;4409981;32;20034;-74
2021/03/31 04:51:21;;;;;;;40.65;15.77;;;;;;;15.29;53.71;101043.09;4405480;32;20042;-74
2021/03/31 04:53:47;;;;;;;35.17;15.02;;;;;;;15.29;53.93;101045.94;4409481;32;20077;-74
2021/03/31 04:56:12;;;;;;;32.10;13.18;;;;;;;15.25;53.87;101047.31;4405442;32;20139;-75
2021/03/31 04:58:38;;;;;;;31.50;14.68;;;;;;;15.21;54.16;101040.97;4408346;32;20078;-75
2021/03/31 05:01:04;;;;;;;28.17;14.00;;;;;;;15.17;54.30;101040.31;4407303;32;20078;-75
2021/03/31 05:03:30;;;;;;;37.92;14.43;;;;;;;15.21;53.92;101029.63;4408528;32;20058;-74
2021/03/31 05:05:56;;;;;;;32.72;14.07;;;;;;;15.23;53.93;101032.81;4409740;32;20568;-74
2021/03/31 05:08:22;;;;;;;25.48;13.27;;;;;;;15.26;53.81;101026.22;4407472;32;20060;-75
2021/03/31 05:10:48;;;;;;;29.92;13.80;;;;;;;15.18;53.89;101028.53;4410664;32;20154;-75
2021/03/31 05:13:14;;;;;;;33.78;13.35;;;;;;;15.22;53.72;101029.16;4406701;32;20105;-74
2021/03/31 05:15:41;;;;;;;31.67;12.80;;;;;;;15.17;53.42;101026.16;4411123;32;20059;-75
2021/03/31 05:18:07;;;;;;;34.33;13.23;;;;;;;15.06;53.60;101020.09;4403807;32;20046;-74
2021/03/31 05:20:33;;;;;;;34.40;13.35;;;;;;;15.03;53.58;101026.72;4410774;32;20042;-75
2021/03/31 05:22:59;;;;;;;31.10;12.88;;;;;;;14.99;53.81;101026.03;4406770;32;20481;-74
2021/03/31 05:25:24;;;;;;;37.40;12.73;;;;;;;15.02;53.64;101027.94;4406950;32;20100;-75
2021/03/31 05:27:50;;;;;;;30.02;12.65;;;;;;;15.01;53.49;101020.69;4405744;32;20056;-74
2021/03/31 05:30:17;;;;;;;30.65;12.80;;;;;;;15.04;53.31;101022.59;4407552;32;20663;-75
2021/03/31 05:32:43;;;;;;;33.78;13.35;;;;;;;15.03;53.34;101023.87;4406156;32;20180;-74
2021/03/31 05:35:10;;;;;;;33.22;12.60;;;;;;;15.04;53.43;101026.22;4407375;32;20203;-74
2021/03/31 05:37:35;;;;;;;26.62;12.02;;;;;;;15.10;53.27;101007.34;4409092;32;20048;-74
2021/03/31 05:40:03;;;;;;;27.48;11.65;;;;;;;15.13;53.29;101012.09;4410279;32;20074;-74
2021/03/31 05:42:29;;;;;;;32.20;13.23;;;;;;;15.15;53.19;101009.59;4407714;32;20033;-74
2021/03/31 05:44:56;;;;;;;34.40;13.05;;;;;;;15.07;52.77;101010.34;4411561;32;20565;-74
2021/03/31 05:47:28;;;;;;;32.72;12.63;;;;;;;15.03;52.80;101027.47;4407372;32;20073;-74
2021/03/31 05:49:54;;;;;;;29.45;10.93;;;;;;;15.05;52.82;101016.47;4406512;32;20064;-74
2021/03/31 05:52:22;;;;;;;27.62;11.90;;;;;;;15.11;52.54;101016.66;4407398;32;20109;-74
2021/03/31 05:54:47;;;;;;;33.65;12.05;;;;;;;15.16;52.22;101007.56;4407823;32;20076;-74
2021/03/31 05:57:16;;;;;;;32.22;11.50;;;;;;;15.24;51.45;101014.53;4406133;32;20500;-74
2021/03/31 05:59:44;;;;;;;41.37;12.95;;;;;;;15.38;51.34;101016.84;4407289;32;20085;-74
2021/03/31 06:02:12;;;;;;;37.75;12.27;;;;;;;15.43;50.89;101013.41;4403436;32;20030;-74
2021/03/31 06:04:41;;;;;;;33.85;11.20;;;;;;;15.56;49.81;101008.44;4402806;32;21060;-74
2021/03/31 06:07:07;;;;;;;26.33;9.75;;;;;;;15.71;49.23;100998.09;4403157;32;20064;-74
2021/03/31 06:09:33;;;;;;;28.60;11.20;;;;;;;15.88;48.57;100990.88;4408523;32;20392;-75
2021/03/31 06:12:00;;;;;;;36.22;11.20;;;;;;;16.04;48.20;100995.50;4405446;32;20097;-74
2021/03/31 06:14:32;;;;;;;30.67;11.07;;;;;;;16.20;47.50;100996.00;4407797;32;20130;-74
2021/03/31 06:19:45;;;;;;;32.27;12.00;;;;;;;16.41;47.79;100986.53;3998497;31;15015950;-74
2021/03/31 06:22:22;;;;;;;30.90;12.02;;;;;;;16.40;48.21;100989.84;4456920;32;20151;-74
2021/03/31 06:25:14;;;;;;;38.00;13.25;;;;;;;16.43;49.15;100991.75;4440359;32;20423;-75
2021/03/31 06:27:39;;;;;;;41.83;13.15;;;;;;;16.28;49.89;101000.13;4455143;32;20342;-75
2021/03/31 06:30:06;;;;;;;38.55;13.48;;;;;;;16.18;50.01;100994.88;4454669;32;20558;-74
2021/03/31 06:32:38;;;;;;;36.70;14.00;;;;;;;16.28;49.96;101000.13;4454671;32;20107;-75
2021/03/31 06:35:06;;;;;;;42.72;14.07;;;;;;;16.24;50.09;101010.84;4454385;32;20072;-75
2021/03/31 06:37:36;;;;;;;41.55;13.25;;;;;;;16.21;50.33;101017.47;4453111;32;20087;-75
2021/03/31 06:40:06;;;;;;;39.20;14.50;;;;;;;16.20;50.20;101015.09;4448603;32;20396;-74
2021/03/31 06:42:44;;;;;;;43.67;12.90;;;;;;;16.23;50.20;101017.00;4440378;32;20064;-75
2021/03/31 06:45:15;;;;;;;28.83;12.45;;;;;;;16.23;50.21;101009.25;4436025;32;20077;-74
2021/03/31 06:50:25;;;;;;;32.67;13.30;;;;;;;16.68;49.62;100995.09;3976457;32;15025333;-78
2021/03/31 06:52:58;;;;;;;39.30;12.93;;;;;;;16.68;49.62;100995.09;4428543;32;20052;-75
2021/03/31 06:55:26;;;;;;;39.85;12.73;;;;;;;16.32;50.05;100989.37;4430051;32;20436;-74
2021/03/31 06:57:54;;;;;;;34.88;12.10;;;;;;;16.35;49.86;100994.13;4431791;32;20085;-75
2021/03/31 07:00:26;;;;;;;37.78;12.45;;;;;;;16.36;49.28;100995.72;4421592;32;20145;-76
2021/03/31 07:02:53;;;;;;;26.58;11.32;;;;;;;16.50;48.69;100980.91;4421686;32;20114;-75
2021/03/31 07:05:21;;;;;;;25.25;10.38;;;;;;;16.60;47.74;100990.22;4424470;32;20092;-76
2021/03/31 07:07:47;;;;;;;24.20;10.48;;;;;;;16.76;46.40;100992.75;4421618;32;20033;-76
2021/03/31 07:10:15;;;;;;;28.95;12.85;;;;;;;17.04;44.95;100989.37;4425899;32;20446;-76
2021/03/31 07:12:45;;;;;;;32.85;10.10;;;;;;;17.17;45.20;100994.88;4422617;32;20565;-75
2021/03/31 07:15:17;;;;;;;28.58;10.40;;;;;;;17.24;44.92;101003.06;4427254;32;20546;-76
2021/03/31 07:17:47;;;;;;;27.40;11.00;;;;;;;17.47;44.09;100996.72;4424476;32;20070;-76
2021/03/31 07:20:13;;;;;;;30.62;10.65;;;;;;;17.58;43.22;101011.22;4422988;32;20115;-76
2021/03/31 07:22:39;;;;;;;22.13;9.77;;;;;;;17.80;42.72;100988.97;4422625;32;20128;-76
2021/03/31 07:25:06;;;;;;;22.85;10.80;;;;;;;17.84;42.78;100981.84;4425735;32;20033;-75
2021/03/31 07:27:33;;;;;;;30.92;10.85;;;;;;;18.03;42.39;100981.72;4421518;32;20108;-75
2021/03/31 07:30:16;;;;;;;25.08;10.15;;;;;;;18.13;42.10;100980.41;4424695;32;21277;-75
2021/03/31 07:35:21;;;;;;;24.97;11.03;;;;;;;19.24;40.37;100989.87;3963760;31;15707372;-73
2021/03/31 07:37:47;;;;;;;26.42;10.65;;;;;;;19.24;40.37;100989.87;4442582;32;20140;-72
2021/03/31 07:40:16;;;;;;;35.90;11.05;;;;;;;19.02;40.37;100995.97;4442227;32;20167;-73
2021/03/31 07:42:56;;;;;;;27.62;10.55;;;;;;;19.21;39.77;100990.88;4444658;32;20121;-74
2021/03/31 07:45:30;;;;;;;24.75;9.82;;;;;;;19.39;39.40;101004.97;4439823;32;20527;-74
2021/03/31 07:47:57;;;;;;;27.70;10.80;;;;;;;19.52;39.20;101000.50;4440978;32;20084;-74
2021/03/31 07:50:24;;;;;;;24.92;10.23;;;;;;;19.62;39.43;100998.34;4443316;32;20148;-72
2021/03/31 08:03:27;;;;;;;35.17;12.60;;;;;;;20.21;38.55;100998.97;3963577;32;15022214;-73
2021/03/31 08:14:35;;;;;;;28.15;11.95;;;;;;;20.18;39.11;100994.25;3965454;32;15033005;-75
2021/03/31 08:17:03;;;;;;;27.02;11.88;;;;;;;20.18;39.11;100994.25;4416048;32;20061;-76
2021/03/31 08:19:32;;;;;;;24.52;10.70;;;;;;;19.85;39.46;100994.53;4412836;32;20354;-74
2021/03/31 08:22:17;;;;;;;31.95;12.30;;;;;;;19.95;39.43;101000.91;4416186;32;20111;-74
2021/03/31 08:24:47;;;;;;;42.85;13.27;;;;;;;20.04;39.14;101006.50;4415040;32;20136;-74
2021/03/31 08:27:13;;;;;;;26.52;11.77;;;;;;;20.20;39.02;101006.78;4418338;32;20091;-74
2021/03/31 08:32:15;;;;;;;27.08;11.73;;;;;;;20.80;37.76;101003.88;3970082;32;15072111;-75
2021/03/31 08:34:42;;;;;;;25.10;10.20;;;;;;;20.80;37.76;101003.88;4431594;32;20072;-76
2021/03/31 08:37:19;;;;;;;21.25;9.43;;;;;;;20.49;37.87;101003.78;4430654;32;20204;-76
2021/03/31 08:39:45;;;;;;;23.40;8.95;;;;;;;20.67;37.14;101000.63;4431982;32;20569;-74
2021/03/31 08:42:11;;;;;;;22.20;9.95;;;;;;;20.96;36.35;101009.03;4433568;32;20085;-75
2021/03/31 08:44:38;;;;;;;23.55;9.57;;;;;;;21.36;36.06;101011.78;4431224;32;20085;-74
2021/03/31 08:49:46;;;;;;;28.95;11.25;;;;;;;22.38;34.05;100998.47;3969832;32;15022146;-76
2021/03/31 08:52:14;;;;;;;22.40;9.70;;;;;;;22.38;34.05;100998.47;4430040;32;20147;-74
2021/03/31 08:57:24;;;;;;;22.67;9.90;;;;;;;22.68;33.48;100996.78;3967633;32;15025792;-74
2021/03/31 08:59:52;;;;;;;26.52;9.68;;;;;;;22.93;32.90;100995.81;4429878;32;20127;-73
2021/03/31 09:02:22;;;;;;;22.08;9.88;;;;;;;23.05;32.63;100992.47;4425719;32;20073;-77
2021/03/31 09:04:50;;;;;;;23.05;9.02;;;;;;;23.23;32.47;100997.72;4430522;32;20061;-74
2021/03/31 09:07:16;;;;;;;30.75;9.73;;;;;;;23.36;32.53;100995.16;4426958;32;20099;-75
2021/03/31 09:09:44;;;;;;;25.70;9.35;;;;;;;23.71;32.17;101000.34;4425634;32;20504;-74
2021/03/31 09:12:13;;;;;;;23.50;9.13;;;;;;;23.94;31.82;101006.87;4431083;32;20074;-75
2021/03/31 09:14:43;;;;;;;25.23;10.00;;;;;;;24.11;31.40;100996.91;4431955;32;20067;-75
2021/03/31 09:17:12;;;;;;;26.00;8.55;;;;;;;23.97;31.87;100992.25;4425255;32;20074;-75
2021/03/31 09:19:41;;;;;;;28.12;10.07;;;;;;;24.02;31.58;101002.19;4426214;32;20101;-75
2021/03/31 09:22:11;;;;;;;23.85;8.77;;;;;;;24.31;31.43;100992.94;4429183;32;20504;-74
2021/03/31 09:24:41;;;;;;;22.65;9.20;;;;;;;24.33;31.16;100990.34;4423891;32;20436;-72
2021/03/31 09:27:11;;;;;;;26.58;9.30;;;;;;;24.41;31.17;100989.25;4430891;32;20566;-73
2021/03/31 09:29:43;;;;;;;20.70;8.70;;;;;;;24.69;30.92;100992.03;4429111;32;20384;-74
2021/03/31 09:32:13;;;;;;;24.00;9.80;;;;;;;24.80;30.73;100992.78;4432795;32;20472;-75
2021/03/31 09:34:39;;;;;;;24.25;9.00;;;;;;;24.64;30.93;100989.94;4428026;32;20065;-76
2021/03/31 09:37:08;;;;;;;20.92;8.20;;;;;;;24.27;31.52;100984.59;4432942;32;20033;-77
2021/03/31 09:42:42;;;;;;;25.03;7.27;;;;;;;25.10;30.32;100987.09;3989649;31;15015082;-75
2021/03/31 09:45:11;;;;;;;22.42;8.38;;;;;;;25.10;30.32;100987.09;4446657;32;20465;-76
2021/03/31 09:47:38;;;;;;;18.52;7.25;;;;;;;24.79;30.64;100984.69;4445029;32;20146;-77
2021/03/31 09:50:09;;;;;;;20.80;6.68;;;;;;;24.87;30.46;100992.22;4432618;32;20138;-74
2021/03/31 09:52:35;;;;;;;19.80;6.12;;;;;;;24.89;30.47;100988.78;4444559;32;20107;-76
2021/03/31 09:55:07;;;;;;;16.52;7.07;;;;;;;25.22;30.26;100986.47;4444497;32;20049;-74
2021/03/31 09:57:36;;;;;;;13.50;6.12;;;;;;;25.57;29.95;100991.47;4444364;32;20373;-76
2021/03/31 10:02:42;;;;;;;23.62;5.90;;;;;;;25.96;29.35;100986.13;3961779;32;15023639;-75
2021/03/31 10:05:13;;;;;;;22.60;6.60;;;;;;;26.29;28.62;100985.78;4416675;32;20045;-77
2021/03/31 10:07:39;;;;;;;21.52;5.20;;;;;;;26.48;28.26;100982.94;4416696;32;20057;-75
2021/03/31 10:10:07;;;;;;;18.02;5.93;;;;;;;26.95;27.43;100982.06;4418119;32;20076;-76
2021/03/31 10:12:35;;;;;;;18.73;5.22;;;;;;;27.39;27.04;100977.72;4419358;32;20034;-74
2021/03/31 10:15:05;;;;;;;10.10;4.07;;;;;;;27.49;26.83;100978.91;4417953;32;21716;-76
2021/03/31 10:17:33;;;;;;;19.58;4.95;;;;;;;27.36;26.11;100970.16;4418222;32;20470;-74
2021/03/31 10:22:52;;;;;;;13.90;4.87;;;;;;;27.78;26.09;100972.06;3978041;32;15031845;-76
2021/03/31 10:25:33;;;;;;;21.95;5.60;;;;;;;27.78;26.09;100972.06;4425006;32;20371;-76
2021/03/31 10:27:59;;;;;;;12.35;4.70;;;;;;;27.35;26.42;100973.59;4430328;32;20052;-76
2021/03/31 10:30:29;;;;;;;17.15;4.25;;;;;;;27.47;25.97;100972.87;4426134;32;20116;-75
2021/03/31 10:32:56;;;;;;;11.10;4.25;;;;;;;27.49;25.89;100970.22;4428666;32;20072;-76
2021/03/31 10:38:28;;;;;;;13.10;4.62;;;;;;;28.32;24.86;100978.12;3976664;32;15022484;-76
2021/03/31 10:47:10;;;;;;;13.02;4.07;;;;;;;27.24;25.70;100971.66;4429412;32;20045;-73
2021/03/31 10:52:19;;;;;;;11.07;4.55;;;;;;;27.89;25.35;100962.44;3947609;32;15747623;-76
2021/03/31 10:54:45;;;;;;;14.00;4.07;;;;;;;27.89;25.35;100962.44;4425105;32;20208;-75
2021/03/31 10:57:13;;;;;;;12.50;4.20;;;;;;;27.37;25.87;100956.50;4425891;32;20076;-75
2021/03/31 10:59:41;;;;;;;10.88;4.45;;;;;;;27.40;25.54;100964.06;4425937;32;20104;-77
2021/03/31 11:02:08;;;;;;;11.93;4.20;;;;;;;27.65;25.66;100957.59;4425669;32;20061;-75
2021/03/31 11:04:34;;;;;;;12.68;4.47;;;;;;;27.69;25.82;100960.13;4422363;32;20041;-75
2021/03/31 11:07:00;;;;;;;11.23;4.45;;;;;;;27.91;25.50;100956.84;4425949;32;20100;-76
2021/03/31 11:09:28;;;;;;;12.02;4.80;;;;;;;28.15;24.98;100960.34;4423077;32;20184;-75
2021/03/31 11:11:56;;;;;;;9.77;4.05;;;;;;;28.44;24.79;100958.44;4422308;32;20069;-76
2021/03/31 11:14:22;;;;;;;15.38;4.82;;;;;;;28.72;24.40;100962.31;4422248;32;20073;-76
2021/03/31 11:16:56;;;;;;;12.48;4.25;;;;;;;28.47;24.88;100951.56;4424000;32;21309;-76
2021/03/31 11:19:44;;;;;;;14.97;4.17;;;;;;;28.27;24.35;100961.69;4419161;32;20095;-75
2021/03/31 11:27:40;;;;;;;13.10;4.47;;;;;;;28.93;23.95;100948.66;4424040;32;20594;-77
2021/03/31 11:30:09;;;;;;;11.00;4.90;;;;;;;28.78;24.33;100947.72;4423560;32;20137;-77
2021/03/31 11:32:37;;;;;;;14.32;4.12;;;;;;;28.83;24.40;100944.69;4422949;32;20100;-76
2021/03/31 11:35:04;;;;;;;14.18;4.80;;;;;;;29.26;24.03;100941.31;4423413;32;20114;-75
2021/03/31 11:37:31;;;;;;;8.80;4.30;;;;;;;29.38;23.69;100942.59;4422658;32;20100;-77
2021/03/31 11:39:57;;;;;;;14.40;3.78;;;;;;;29.99;23.17;100944.69;4425257;32;20068;-77
2021/03/31 11:42:23;;;;;;;10.90;3.97;;;;;;;30.09;22.92;100956.53;4426785;32;20074;-76
2021/03/31 11:44:48;;;;;;;7.07;3.87;;;;;;;30.45;21.75;100948.69;4420162;32;20418;-75
2021/03/31 11:47:14;;;;;;;13.10;4.72;;;;;;;30.20;21.96;100944.66;4426557;32;20049;-77
2021/03/31 11:49:40;;;;;;;11.40;3.87;;;;;;;30.32;22.51;100937.97;4418977;32;20081;-76
2021/03/31 11:52:07;;;;;;;14.95;4.20;;;;;;;30.53;22.37;100941.53;4423794;32;20126;-77
2021/03/31 11:54:33;;;;;;;14.73;4.60;;;;;;;30.64;22.29;100937.53;4420375;32;20091;-75
2021/03/31 11:56:59;;;;;;;12.55;4.47;;;;;;;30.63;22.21;100941.78;4408050;32;20073;-74
2021/03/31 11:59:25;;;;;;;17.27;4.53;;;;;;;31.12;21.96;100936.56;4424507;32;20926;-77
2021/03/31 12:01:52;;;;;;;11.95;4.07;;;;;;;31.22;21.73;100943.38;4419112;32;20041;-76
2021/03/31 12:04:18;;;;;;;9.20;4.30;;;;;;;31.50;21.05;100939.56;4414559;32;20521;-76
2021/03/31 12:06:44;;;;;;;18.73;4.37;;;;;;;31.36;21.31;100933.16;4409260;32;20070;-76
2021/03/31 12:09:11;;;;;;;16.73;5.00;;;;;;;30.95;21.74;100935.56;4409105;32;20347;-77
2021/03/31 12:11:37;;;;;;;12.05;4.65;;;;;;;31.00;21.80;100938.28;4414523;32;20258;-76
2021/03/31 12:14:04;;;;;;;17.48;4.12;;;;;;;31.06;21.78;100927.25;4416617;32;20055;-77
2021/03/31 12:16:30;;;;;;;10.13;3.42;;;;;;;31.26;21.65;100943.75;4411983;32;20093;-77
2021/03/31 12:18:57;;;;;;;13.43;4.18;;;;;;;31.22;21.37;100940.47;4410716;32;20448;-76
2021/03/31 12:21:22;;;;;;;10.07;4.20;;;;;;;31.54;21.26;100929.06;4392334;32;20064;-79
2021/03/31 12:23:48;;;;;;;12.90;3.87;;;;;;;31.55;21.26;100935.69;4409487;32;20482;-77
2021/03/31 12:26:16;;;;;;;22.65;3.95;;;;;;;31.81;20.51;100936.09;4408556;32;20076;-76
2021/03/31 12:28:48;;;;;;;12.27;4.00;;;;;;;32.22;20.06;100935.66;4411000;32;20124;-77
2021/03/31 12:31:14;;;;;;;7.72;3.78;;;;;;;32.16;20.42;100926.34;4412354;32;20060;-77
2021/03/31 12:33:40;;;;;;;12.73;3.83;;;;;;;32.26;20.36;100938.16;4414440;32;20071;-76
2021/03/31 12:36:06;;;;;;;12.02;3.75;;;;;;;32.87;19.94;100924.19;4411777;32;20123;-77
2021/03/31 12:38:32;;;;;;;11.68;3.67;;;;;;;32.43;20.30;100933.28;4415517;32;20144;-77